createdAt,value
2019-05-30T00:05:04.605Z,46
2019-05-30T00:20:06.388Z,46
2019-05-30T00:35:04.053Z,46
2019-05-30T00:50:04.599Z,46
2019-05-30T01:05:05.100Z,46
2019-05-30T01:20:05.441Z,46
2019-05-30T01:35:04.113Z,46
2019-05-30T01:50:04.542Z,46
2019-05-30T02:05:03.643Z,46
2019-05-30T02:20:06.004Z,45
2019-05-30T02:35:05.183Z,45
2019-05-30T02:50:07.946Z,45
2019-05-30T03:05:09.220Z,45
2019-05-30T03:20:20.871Z,45
2019-05-30T03:35:13.906Z,45
2019-05-30T03:50:08.675Z,44
2019-05-30T04:05:04.068Z,44
2019-05-30T04:20:04.466Z,44
2019-05-30T04:35:05.468Z,44
2019-05-30T04:50:05.442Z,44
2019-05-30T05:05:03.895Z,44
2019-05-30T05:20:06.258Z,44
2019-05-30T05:35:04.104Z,44
2019-05-30T05:50:04.032Z,45
2019-05-30T06:05:04.311Z,45
2019-05-30T06:20:04.143Z,45
2019-05-30T06:35:04.241Z,45
2019-05-30T06:50:05.626Z,45
2019-05-30T07:05:06.531Z,45
2019-05-30T07:20:14.885Z,44
2019-05-30T07:35:08.212Z,44
2019-05-30T07:50:06.332Z,44
2019-05-30T08:05:24.422Z,44
2019-05-30T08:20:08.253Z,43
2019-05-30T08:35:03.900Z,43
2019-05-30T08:50:05.844Z,43
2019-05-30T09:05:07.392Z,42
2019-05-30T09:20:04.501Z,42
2019-05-30T09:35:03.893Z,42
2019-05-30T09:50:06.402Z,42
2019-05-30T10:05:04.300Z,42
2019-05-30T10:20:04.727Z,41
2019-05-30T10:35:05.598Z,41
2019-05-30T10:50:05.524Z,41
2019-05-30T11:05:04.535Z,40
2019-05-30T11:20:04.991Z,40
2019-05-30T11:35:04.922Z,40
2019-05-30T11:50:06.054Z,40
2019-05-30T12:05:07.390Z,39
2019-05-30T12:20:04.944Z,39
2019-05-30T12:35:06.052Z,39
2019-05-30T12:50:03.804Z,39
2019-05-30T13:05:07.374Z,39
2019-05-30T13:20:05.298Z,39
2019-05-30T13:35:03.842Z,39
2019-05-30T13:50:13.330Z,38
2019-05-30T14:05:04.224Z,38
2019-05-30T14:20:07.176Z,38
2019-05-30T14:35:04.394Z,38
2019-05-30T14:50:06.970Z,38
2019-05-30T15:05:05.551Z,38
2019-05-30T15:20:07.447Z,38
2019-05-30T15:35:03.832Z,38
2019-05-30T15:50:05.264Z,37
2019-05-30T16:05:04.449Z,37
2019-05-30T16:20:06.096Z,37
2019-05-30T16:35:04.032Z,37
2019-05-30T16:50:03.859Z,36
2019-05-30T17:05:06.499Z,36
2019-05-30T17:20:04.754Z,35
2019-05-30T17:35:05.636Z,35
2019-05-30T17:50:05.957Z,35
2019-05-30T18:05:03.964Z,35
2019-05-30T18:20:04.953Z,35
2019-05-30T18:35:03.432Z,36
2019-05-30T18:50:04.496Z,37
2019-05-30T19:05:04.063Z,37
2019-05-30T19:20:06.072Z,39
2019-05-30T19:35:03.176Z,39
2019-05-30T19:50:04.597Z,40
2019-05-30T20:05:04.125Z,40
2019-05-30T20:20:04.519Z,40
2019-05-30T20:35:03.811Z,40
2019-05-30T20:50:05.077Z,40
2019-05-30T21:05:04.740Z,40
2019-05-30T21:20:05.868Z,40
2019-05-30T21:35:04.613Z,40
2019-05-30T21:50:04.170Z,41
2019-05-30T22:05:03.080Z,41
2019-05-30T22:20:04.905Z,41
2019-05-30T22:35:04.592Z,41
2019-05-30T22:50:06.717Z,41
2019-05-30T23:05:04.373Z,41
2019-05-30T23:20:04.765Z,41
2019-05-30T23:35:05.515Z,41
2019-05-30T23:50:04.608Z,42
